createdAt,value
2022-08-29T00:00:59.934Z,98332.10
2022-08-29T00:02:01.742Z,98334.71
2022-08-29T00:03:08.791Z,98329.63
2022-08-29T00:04:10.917Z,98329.38
2022-08-29T00:05:13.510Z,98330.61
2022-08-29T00:06:15.597Z,98330.51
2022-08-29T00:07:17.362Z,98328.83
2022-08-29T00:08:19.718Z,98329.86
2022-08-29T00:09:21.393Z,98330.40
2022-08-29T00:10:23.202Z,98331.60
2022-08-29T00:11:25.009Z,98330.25
2022-08-29T00:12:26.766Z,98331.58
2022-08-29T00:13:29.183Z,98333.67
2022-08-29T00:14:31.200Z,98334.63
2022-08-29T00:15:44.581Z,98336.61
2022-08-29T00:16:47.279Z,98337.43
2022-08-29T00:17:50.432Z,98339.94
2022-08-29T00:18:52.141Z,98339.66
2022-08-29T00:19:53.886Z,98341.56
2022-08-29T00:20:55.569Z,98337.94
2022-08-29T00:21:57.497Z,98338.96
2022-08-29T00:22:59.425Z,98338.74
2022-08-29T00:24:01.220Z,98340.83
2022-08-29T00:25:04.871Z,98341.16
2022-08-29T00:26:06.937Z,98339.61
2022-08-29T00:27:08.569Z,98338.78
2022-08-29T00:28:10.809Z,98340.33
2022-08-29T00:29:12.586Z,98337.31
2022-08-29T00:30:17.776Z,98340.80
2022-08-29T00:31:19.430Z,98337.81
2022-08-29T00:32:21.103Z,98339.32
2022-08-29T00:33:22.836Z,98336.90
2022-08-29T00:34:24.612Z,98338.38
2022-08-29T00:35:31.067Z,98338.84
2022-08-29T00:36:33.166Z,98335.60
2022-08-29T00:37:35.336Z,98343.94
2022-08-29T00:38:38.145Z,98338.38
2022-08-29T00:39:40.217Z,98337.55
2022-08-29T00:40:51.428Z,98338.08
2022-08-29T00:41:53.942Z,98333.73
2022-08-29T00:42:56.038Z,98334.89
2022-08-29T00:43:57.874Z,98336.45
2022-08-29T00:44:59.602Z,98331.16
2022-08-29T00:46:18.002Z,98331.05
2022-08-29T00:47:26.713Z,98330.38
2022-08-29T00:48:28.908Z,98332.52
2022-08-29T00:49:48.490Z,98327.23
2022-08-29T00:50:58.746Z,98332.48
2022-08-29T00:52:16.767Z,98335.60
2022-08-29T00:53:28.897Z,98331.23
2022-08-29T00:54:32.148Z,98330.89
2022-08-29T00:55:37.387Z,98330.89
2022-08-29T00:56:41.783Z,98331.52
2022-08-29T00:57:47.969Z,98338.02
2022-08-29T00:59:01.101Z,98333.45
2022-08-29T01:00:06.567Z,98335.60
2022-08-29T01:01:09.270Z,98334.57
2022-08-29T01:02:11.276Z,98336.23
2022-08-29T01:03:13.446Z,98335.98
2022-08-29T01:04:23.613Z,98337.46
2022-08-29T01:05:26.932Z,98338.46
2022-08-29T01:06:30.528Z,98335.02
2022-08-29T01:07:33.142Z,98338.20
2022-08-29T01:08:35.872Z,98340.69
2022-08-29T01:09:41.460Z,98336.58
2022-08-29T01:11:02.766Z,98338.83
2022-08-29T01:12:16.024Z,98343.95
2022-08-29T01:13:17.965Z,98342.12
2022-08-29T01:14:22.236Z,98340.86
2022-08-29T01:15:25.633Z,98334.27
2022-08-29T01:16:29.375Z,98340.45
2022-08-29T01:17:40.371Z,98343.00
2022-08-29T01:18:48.726Z,98338.58
2022-08-29T01:19:56.437Z,98339.39
2022-08-29T01:21:13.254Z,98340.42
2022-08-29T01:22:23.942Z,98341.52
2022-08-29T01:23:56.405Z,98342.92
2022-08-29T01:24:59.624Z,98344.11
2022-08-29T01:26:03.921Z,98346.23
2022-08-29T01:27:06.473Z,98348.49
2022-08-29T01:28:30.478Z,98342.64
2022-08-29T01:29:32.394Z,98347.45
2022-08-29T01:30:34.502Z,98350.88
2022-08-29T01:31:56.010Z,98351.68
2022-08-29T01:33:00.894Z,98352.45
2022-08-29T01:34:02.977Z,98356.35
2022-08-29T01:35:05.725Z,98358.45
2022-08-29T01:36:10.606Z,98361.89
2022-08-29T01:37:16.220Z,98358.79
2022-08-29T01:38:27.614Z,98365.50
2022-08-29T01:39:33.911Z,98364.99
2022-08-29T01:40:35.890Z,98368.02
2022-08-29T01:41:37.645Z,98365.52
2022-08-29T01:42:39.960Z,98368.27
2022-08-29T01:43:44.891Z,98368.47
2022-08-29T01:44:54.522Z,98367.30
2022-08-29T01:45:58.641Z,98369.65
2022-08-29T01:47:03.004Z,98372.80
2022-08-29T01:48:05.177Z,98373.77
2022-08-29T01:49:09.383Z,98374.02
2022-08-29T01:50:15.189Z,98377.76
2022-08-29T01:51:18.189Z,98375.50
2022-08-29T01:52:20.814Z,98377.88
2022-08-29T01:53:22.585Z,98378.08
2022-08-29T01:54:24.261Z,98383.61
2022-08-29T01:55:25.943Z,98382.71
2022-08-29T01:56:32.253Z,98383.98
2022-08-29T01:57:33.949Z,98383.33
2022-08-29T01:58:35.593Z,98387.79
2022-08-29T01:59:38.214Z,98387.88
2022-08-29T02:00:40.325Z,98384.11
2022-08-29T02:01:57.158Z,98390.38
2022-08-29T02:03:00.979Z,98387.27
2022-08-29T02:04:03.393Z,98393.27
2022-08-29T02:05:05.593Z,98393.50
2022-08-29T02:06:09.988Z,98393.41
2022-08-29T02:07:12.901Z,98393.73
2022-08-29T02:08:14.935Z,98393.15
2022-08-29T02:09:17.621Z,98393.55
2022-08-29T02:10:20.182Z,98395.02
2022-08-29T02:11:23.199Z,98394.80
2022-08-29T02:12:26.316Z,98395.57
2022-08-29T02:13:28.553Z,98395.73
2022-08-29T02:14:30.499Z,98400.95
2022-08-29T02:15:32.537Z,98399.21
2022-08-29T02:16:34.409Z,98398.34
2022-08-29T02:17:37.164Z,98400.73
2022-08-29T02:18:42.386Z,98399.70
2022-08-29T02:19:44.160Z,98401.66
2022-08-29T02:20:46.201Z,98398.95
2022-08-29T02:21:48.153Z,98400.67
2022-08-29T02:22:49.887Z,98399.41
2022-08-29T02:23:52.679Z,98396.09
2022-08-29T02:24:54.465Z,98401.77
2022-08-29T02:25:57.269Z,98399.79
2022-08-29T02:26:59.089Z,98400.02
2022-08-29T02:28:00.810Z,98401.77
2022-08-29T02:29:02.621Z,98406.30
2022-08-29T02:30:04.704Z,98403.20
2022-08-29T02:31:07.625Z,98401.92
2022-08-29T02:32:12.610Z,98405.85
2022-08-29T02:33:15.909Z,98406.08
2022-08-29T02:34:21.168Z,98407.55
2022-08-29T02:35:24.219Z,98409.35
2022-08-29T02:36:27.126Z,98406.72
2022-08-29T02:37:29.190Z,98407.20
2022-08-29T02:38:31.205Z,98403.55
2022-08-29T02:39:33.801Z,98409.88
2022-08-29T02:40:36.000Z,98406.95
2022-08-29T02:41:38.719Z,98407.76
2022-08-29T02:42:40.363Z,98413.77
2022-08-29T02:43:42.954Z,98409.13
2022-08-29T02:44:44.632Z,98413.02
2022-08-29T02:45:47.647Z,98409.39
2022-08-29T02:46:49.557Z,98407.63
2022-08-29T02:47:51.469Z,98407.08
2022-08-29T02:49:00.929Z,98407.05
2022-08-29T02:50:05.959Z,98409.14
2022-08-29T02:51:07.660Z,98409.89
2022-08-29T02:52:09.538Z,98410.73
2022-08-29T02:53:13.916Z,98410.02
2022-08-29T02:54:15.903Z,98412.60
2022-08-29T02:55:20.721Z,98416.41
2022-08-29T02:56:22.702Z,98413.88
2022-08-29T02:57:25.029Z,98417.16
2022-08-29T02:58:26.717Z,98413.89
2022-08-29T02:59:28.401Z,98417.23
2022-08-29T03:00:30.987Z,98418.20
2022-08-29T03:01:33.403Z,98417.86
2022-08-29T03:02:35.247Z,98418.11
2022-08-29T03:03:36.957Z,98416.95
2022-08-29T03:04:38.714Z,98419.23
2022-08-29T03:05:42.235Z,98421.94
2022-08-29T03:06:43.909Z,98421.63
2022-08-29T03:07:50.317Z,98421.95
2022-08-29T03:08:54.160Z,98418.85
2022-08-29T03:09:56.105Z,98420.04
2022-08-29T03:10:58.226Z,98420.20
2022-08-29T03:11:59.890Z,98419.81
2022-08-29T03:13:01.688Z,98423.34
2022-08-29T03:14:04.178Z,98426.14
2022-08-29T03:15:07.550Z,98425.82
2022-08-29T03:16:09.436Z,98426.40
2022-08-29T03:17:11.345Z,98429.05
2022-08-29T03:18:15.143Z,98426.44
2022-08-29T03:19:17.053Z,98431.13
2022-08-29T03:20:21.818Z,98424.36
2022-08-29T03:21:26.675Z,98438.42
2022-08-29T03:22:29.091Z,98432.31
2022-08-29T03:23:30.808Z,98434.15
2022-08-29T03:24:35.181Z,98434.22
2022-08-29T03:25:37.486Z,98435.79
2022-08-29T03:26:39.310Z,98439.23
2022-08-29T03:27:41.671Z,98438.38
2022-08-29T03:28:43.545Z,98442.23
2022-08-29T03:29:45.653Z,98442.35
2022-08-29T03:30:48.213Z,98440.37
2022-08-29T03:31:49.876Z,98442.16
2022-08-29T03:32:51.596Z,98443.45
2022-08-29T03:33:53.236Z,98442.74
2022-08-29T03:34:55.614Z,98444.57
2022-08-29T03:35:57.305Z,98443.41
2022-08-29T03:37:00.313Z,98445.70
2022-08-29T03:38:02.038Z,98447.73
2022-08-29T03:39:04.124Z,98444.97
2022-08-29T03:40:08.342Z,98446.98
2022-08-29T03:41:10.386Z,98449.12
2022-08-29T03:42:12.995Z,98452.06
2022-08-29T03:43:14.637Z,98451.14
2022-08-29T03:44:18.287Z,98455.91
2022-08-29T03:45:20.497Z,98454.09
2022-08-29T03:46:22.644Z,98457.76
2022-08-29T03:47:24.529Z,98458.20
2022-08-29T03:48:26.225Z,98461.64
2022-08-29T03:49:28.135Z,98460.29
2022-08-29T03:50:29.904Z,98461.29
2022-08-29T03:51:31.817Z,98466.73
2022-08-29T03:52:33.677Z,98468.64
2022-08-29T03:53:35.397Z,98467.77
2022-08-29T03:54:38.401Z,98471.51
2022-08-29T03:55:40.128Z,98471.69
2022-08-29T03:56:41.968Z,98476.52
2022-08-29T03:57:43.766Z,98479.19
2022-08-29T03:58:48.105Z,98478.73
2022-08-29T03:59:54.268Z,98481.84
2022-08-29T04:00:56.022Z,98487.54
2022-08-29T04:01:58.857Z,98486.80
2022-08-29T04:03:00.954Z,98487.14
2022-08-29T04:04:03.215Z,98485.48
2022-08-29T04:05:08.779Z,98491.89
2022-08-29T04:06:11.928Z,98490.58
2022-08-29T04:07:14.887Z,98488.59
2022-08-29T04:08:16.645Z,98491.60
2022-08-29T04:09:18.556Z,98494.73
2022-08-29T04:10:25.009Z,98496.75
2022-08-29T04:11:28.251Z,98497.29
2022-08-29T04:12:30.005Z,98497.40
2022-08-29T04:13:31.719Z,98499.83
2022-08-29T04:14:33.678Z,98500.71
2022-08-29T04:15:37.377Z,98500.09
2022-08-29T04:16:39.907Z,98498.66
2022-08-29T04:17:53.103Z,98502.77
2022-08-29T04:18:55.348Z,98503.88
2022-08-29T04:19:57.103Z,98507.80
2022-08-29T04:21:02.575Z,98506.36
2022-08-29T04:22:05.951Z,98505.77
2022-08-29T04:23:07.989Z,98508.75
2022-08-29T04:24:09.839Z,98507.54
2022-08-29T04:25:14.759Z,98508.63
2022-08-29T04:26:36.047Z,98509.95
2022-08-29T04:27:39.661Z,98509.15
2022-08-29T04:28:41.490Z,98507.73
2022-08-29T04:29:43.599Z,98509.41
2022-08-29T04:30:51.553Z,98510.47
2022-08-29T04:31:54.091Z,98509.13
2022-08-29T04:32:56.662Z,98508.89
2022-08-29T04:33:58.486Z,98507.64
2022-08-29T04:35:00.264Z,98512.56
2022-08-29T04:36:06.242Z,98516.21
2022-08-29T04:37:07.935Z,98517.91
2022-08-29T04:38:09.634Z,98521.06
2022-08-29T04:39:12.263Z,98518.55
2022-08-29T04:40:18.527Z,98519.20
2022-08-29T04:41:21.235Z,98516.81
2022-08-29T04:42:23.068Z,98518.31
2022-08-29T04:43:24.957Z,98518.29
2022-08-29T04:44:26.653Z,98519.08
2022-08-29T04:45:29.021Z,98519.27
2022-08-29T04:46:31.627Z,98516.77
2022-08-29T04:47:36.596Z,98517.17
2022-08-29T04:48:38.262Z,98521.63
2022-08-29T04:49:42.330Z,98519.57
2022-08-29T04:50:43.953Z,98518.65
2022-08-29T04:51:45.627Z,98517.03
2022-08-29T04:52:48.680Z,98517.09
2022-08-29T04:53:51.806Z,98521.48
2022-08-29T04:54:53.766Z,98519.85
2022-08-29T04:56:06.994Z,98522.48
2022-08-29T04:57:09.508Z,98519.55
2022-08-29T04:58:13.051Z,98519.77
2022-08-29T04:59:16.585Z,98524.74
2022-08-29T05:00:24.954Z,98524.13
2022-08-29T05:01:27.434Z,98525.04
2022-08-29T05:02:29.320Z,98526.52
2022-08-29T05:03:32.754Z,98528.90
2022-08-29T05:04:34.396Z,98530.00
2022-08-29T05:05:36.633Z,98533.05
2022-08-29T05:06:38.286Z,98533.13
2022-08-29T05:07:40.888Z,98532.73
2022-08-29T05:08:44.002Z,98537.34
2022-08-29T05:09:45.655Z,98540.93
2022-08-29T05:10:47.726Z,98539.97
2022-08-29T05:11:49.829Z,98544.10
2022-08-29T05:12:51.553Z,98544.58
2022-08-29T05:13:53.924Z,98547.84
2022-08-29T05:14:56.358Z,98548.77
2022-08-29T05:15:58.157Z,98551.17
2022-08-29T05:16:59.894Z,98549.74
2022-08-29T05:18:01.553Z,98551.10
2022-08-29T05:19:06.535Z,98549.81
2022-08-29T05:20:08.677Z,98548.31
2022-08-29T05:21:11.241Z,98545.80
2022-08-29T05:22:14.255Z,98546.77
2022-08-29T05:23:18.527Z,98548.68
2022-08-29T05:24:20.209Z,98550.79
2022-08-29T05:25:22.096Z,98548.35
2022-08-29T05:26:28.952Z,98549.62
2022-08-29T05:27:30.740Z,98552.36
2022-08-29T05:28:34.971Z,98550.67
2022-08-29T05:29:41.842Z,98551.98
2022-08-29T05:30:44.050Z,98553.41
2022-08-29T05:31:46.210Z,98553.14
2022-08-29T05:32:48.399Z,98555.72
2022-08-29T05:33:50.501Z,98555.59
2022-08-29T05:34:52.308Z,98555.78
2022-08-29T05:35:54.206Z,98558.01
2022-08-29T05:36:55.862Z,98556.77
2022-08-29T05:37:57.580Z,98565.90
2022-08-29T05:39:03.483Z,98560.96
2022-08-29T05:40:05.894Z,98568.23
2022-08-29T05:41:07.736Z,98563.14
2022-08-29T05:42:11.944Z,98566.36
2022-08-29T05:43:14.111Z,98571.09
2022-08-29T05:44:15.909Z,98570.38
2022-08-29T05:45:17.713Z,98567.55
2022-08-29T05:46:20.059Z,98570.42
2022-08-29T05:47:22.452Z,98567.35
2022-08-29T05:48:24.112Z,98566.05
2022-08-29T05:49:26.484Z,98566.85
2022-08-29T05:50:28.263Z,98570.20
2022-08-29T05:51:37.282Z,98568.53
2022-08-29T05:52:41.188Z,98569.23
2022-08-29T05:53:43.355Z,98570.23
2022-08-29T05:54:46.147Z,98569.36
2022-08-29T05:55:47.802Z,98571.82
2022-08-29T05:56:49.837Z,98572.02
2022-08-29T05:57:54.482Z,98571.85
2022-08-29T05:58:56.588Z,98573.01
2022-08-29T05:59:58.238Z,98573.02
2022-08-29T06:00:59.877Z,98571.34
2022-08-29T06:02:06.948Z,98573.46
2022-08-29T06:03:09.957Z,98577.73
2022-08-29T06:04:11.721Z,98574.95
2022-08-29T06:05:13.629Z,98574.17
2022-08-29T06:06:15.298Z,98573.65
2022-08-29T06:07:17.736Z,98571.95
2022-08-29T06:08:21.064Z,98578.09
2022-08-29T06:09:22.878Z,98577.95
2022-08-29T06:10:24.694Z,98577.48
2022-08-29T06:11:30.804Z,98579.11
2022-08-29T06:12:33.610Z,98581.17
2022-08-29T06:13:35.263Z,98581.85
2022-08-29T06:14:37.874Z,98586.16
2022-08-29T06:15:44.340Z,98584.02
2022-08-29T06:16:46.373Z,98589.23
2022-08-29T06:17:48.688Z,98590.08
2022-08-29T06:18:51.110Z,98594.29
2022-08-29T06:19:52.796Z,98592.79
2022-08-29T06:20:54.456Z,98597.76
2022-08-29T06:21:56.878Z,98595.93
2022-08-29T06:22:58.532Z,98598.46
2022-08-29T06:24:00.207Z,98601.03
2022-08-29T06:25:08.729Z,98599.23
2022-08-29T06:26:24.219Z,98600.14
2022-08-29T06:27:25.943Z,98603.35
2022-08-29T06:28:29.044Z,98600.38
2022-08-29T06:29:31.141Z,98600.73
2022-08-29T06:30:33.931Z,98602.76
2022-08-29T06:31:37.333Z,98604.64
2022-08-29T06:32:39.921Z,98607.92
2022-08-29T06:33:41.768Z,98609.34
2022-08-29T06:34:43.481Z,98612.02
2022-08-29T06:35:45.151Z,98614.34
2022-08-29T06:36:47.225Z,98608.79
2022-08-29T06:37:48.884Z,98612.23
2022-08-29T06:38:50.522Z,98613.55
2022-08-29T06:39:52.178Z,98616.38
2022-08-29T06:40:54.486Z,98615.09
2022-08-29T06:41:56.208Z,98617.63
2022-08-29T06:42:59.015Z,98619.52
2022-08-29T06:44:02.798Z,98623.79
2022-08-29T06:45:06.374Z,98621.61
2022-08-29T06:46:22.188Z,98621.88
2022-08-29T06:47:23.890Z,98620.45
2022-08-29T06:48:29.403Z,98623.67
2022-08-29T06:49:33.352Z,98620.73
2022-08-29T06:50:44.877Z,98624.42
2022-08-29T06:51:54.140Z,98622.98
2022-08-29T06:53:14.566Z,98628.31
2022-08-29T06:54:22.914Z,98629.07
2022-08-29T06:55:24.561Z,98629.05
2022-08-29T06:56:26.611Z,98629.69
2022-08-29T06:57:28.488Z,98630.02
2022-08-29T06:58:30.122Z,98630.60
2022-08-29T06:59:31.830Z,98634.11
2022-08-29T07:00:33.894Z,98639.45
2022-08-29T07:01:36.250Z,98636.30
2022-08-29T07:02:38.932Z,98636.91
2022-08-29T07:03:41.283Z,98642.60
2022-08-29T07:04:43.047Z,98642.15
2022-08-29T07:05:52.299Z,98645.98
2022-08-29T07:06:54.104Z,98642.54
2022-08-29T07:07:55.977Z,98644.59
2022-08-29T07:08:58.824Z,98647.95
2022-08-29T07:10:01.315Z,98648.65
2022-08-29T07:11:02.998Z,98649.07
2022-08-29T07:12:06.121Z,98648.80
2022-08-29T07:13:07.968Z,98647.55
2022-08-29T07:14:11.043Z,98646.23
2022-08-29T07:15:12.717Z,98648.90
2022-08-29T07:16:16.929Z,98646.48
2022-08-29T07:17:25.622Z,98647.45
2022-08-29T07:18:28.244Z,98647.84
2022-08-29T07:19:29.872Z,98647.08
2022-08-29T07:20:31.512Z,98643.60
2022-08-29T07:21:33.631Z,98646.30
2022-08-29T07:22:36.533Z,98650.64
2022-08-29T07:23:38.279Z,98650.06
2022-08-29T07:24:39.939Z,98649.20
2022-08-29T07:25:41.696Z,98651.30
2022-08-29T07:26:44.248Z,98650.02
2022-08-29T07:27:47.545Z,98649.69
2022-08-29T07:28:55.624Z,98653.48
2022-08-29T07:29:57.577Z,98650.32
2022-08-29T07:30:59.270Z,98653.85
2022-08-29T07:32:02.138Z,98650.84
2022-08-29T07:33:04.234Z,98656.12
2022-08-29T07:34:06.457Z,98656.23
2022-08-29T07:35:12.777Z,98658.65
2022-08-29T07:36:15.395Z,98655.02
2022-08-29T07:37:17.097Z,98657.71
2022-08-29T07:38:18.861Z,98661.30
2022-08-29T07:39:20.598Z,98659.16
2022-08-29T07:40:22.557Z,98658.11
2022-08-29T07:41:24.848Z,98657.83
2022-08-29T07:42:27.386Z,98663.66
2022-08-29T07:43:29.316Z,98660.95
2022-08-29T07:44:34.583Z,98669.08
2022-08-29T07:45:39.001Z,98667.34
2022-08-29T07:46:41.798Z,98668.61
2022-08-29T07:47:44.529Z,98673.16
2022-08-29T07:48:47.425Z,98674.22
2022-08-29T07:49:49.097Z,98681.84
2022-08-29T07:50:52.377Z,98683.09
2022-08-29T07:51:55.845Z,98676.60
2022-08-29T07:52:57.522Z,98679.81
2022-08-29T07:53:59.401Z,98678.38
2022-08-29T07:55:01.697Z,98677.88
2022-08-29T07:56:11.870Z,98674.97
2022-08-29T07:57:16.817Z,98673.10
2022-08-29T07:58:18.593Z,98670.13
2022-08-29T07:59:21.613Z,98674.00
2022-08-29T08:00:23.449Z,98673.84
2022-08-29T08:01:25.966Z,98677.33
2022-08-29T08:02:27.860Z,98679.44
2022-08-29T08:03:31.295Z,98676.25
2022-08-29T08:04:32.945Z,98677.08
2022-08-29T08:05:34.821Z,98688.02
2022-08-29T08:06:38.162Z,98689.55
2022-08-29T08:07:42.630Z,98686.03
2022-08-29T08:08:44.748Z,98688.87
2022-08-29T08:09:48.418Z,98689.80
2022-08-29T08:10:52.209Z,98696.49
2022-08-29T08:11:54.424Z,98690.50
2022-08-29T08:12:56.133Z,98691.78
2022-08-29T08:13:58.432Z,98692.86
2022-08-29T08:15:00.822Z,98693.19
2022-08-29T08:16:12.978Z,98690.04
2022-08-29T08:17:15.326Z,98694.98
2022-08-29T08:18:17.194Z,98697.27
2022-08-29T08:19:18.901Z,98697.64
2022-08-29T08:20:20.726Z,98697.40
2022-08-29T08:21:24.150Z,98699.49
2022-08-29T08:22:25.794Z,98699.52
2022-08-29T08:23:28.021Z,98698.85
2022-08-29T08:24:29.695Z,98701.27
2022-08-29T08:25:31.964Z,98695.05
2022-08-29T08:26:33.664Z,98693.81
2022-08-29T08:27:38.109Z,98693.11
2022-08-29T08:28:43.918Z,98690.69
2022-08-29T08:29:45.594Z,98692.44
2022-08-29T08:30:47.405Z,98690.84
2022-08-29T08:31:50.340Z,98689.20
2022-08-29T08:32:54.762Z,98693.16
2022-08-29T08:33:57.100Z,98691.20
2022-08-29T08:34:58.866Z,98689.98
2022-08-29T08:36:00.847Z,98692.20
2022-08-29T08:37:07.873Z,98692.33
2022-08-29T08:38:10.783Z,98688.82
2022-08-29T08:39:14.432Z,98688.50
2022-08-29T08:40:28.132Z,98688.00
2022-08-29T08:41:51.520Z,98683.96
2022-08-29T08:42:58.494Z,98688.77
2022-08-29T08:44:26.872Z,98685.73
2022-08-29T08:45:39.466Z,98687.55
2022-08-29T08:46:47.355Z,98686.92
2022-08-29T08:48:01.022Z,98687.92
2022-08-29T08:49:12.353Z,98690.57
2022-08-29T08:50:17.325Z,98688.39
2022-08-29T08:51:28.646Z,98691.11
2022-08-29T08:52:52.662Z,98686.50
2022-08-29T08:53:59.173Z,98687.92
2022-08-29T08:55:23.397Z,98687.95
2022-08-29T08:56:45.577Z,98691.55
2022-08-29T08:58:01.300Z,98692.24
2022-08-29T08:59:13.767Z,98690.58
2022-08-29T09:00:15.901Z,98692.91
2022-08-29T09:01:43.380Z,98690.51
2022-08-29T09:03:03.589Z,98691.59
2022-08-29T09:04:27.122Z,98692.55
2022-08-29T09:05:49.328Z,98693.37
2022-08-29T09:07:02.900Z,98690.38
2022-08-29T09:08:10.462Z,98692.90
2022-08-29T09:09:24.308Z,98693.38
2022-08-29T09:11:10.469Z,98693.91
2022-08-29T09:12:46.100Z,98694.03
2022-08-29T09:14:06.265Z,98689.42
2022-08-29T09:15:13.908Z,98691.61
2022-08-29T09:16:31.629Z,98699.02
2022-08-29T09:17:52.790Z,98691.66
2022-08-29T09:19:05.032Z,98694.10
2022-08-29T09:20:15.074Z,98697.89
2022-08-29T09:21:40.070Z,98697.91
2022-08-29T09:22:55.478Z,98703.25
2022-08-29T09:24:01.918Z,98704.03
2022-08-29T09:25:11.136Z,98700.05
2022-08-29T09:26:17.254Z,98699.95
2022-08-29T09:27:22.252Z,98704.14
2022-08-29T09:28:24.432Z,98705.54
2022-08-29T09:29:29.578Z,98707.19
2022-08-29T09:30:34.047Z,98709.13
2022-08-29T09:31:36.024Z,98710.70
2022-08-29T09:33:12.495Z,98711.13
2022-08-29T09:34:50.805Z,98710.33
2022-08-29T09:35:56.080Z,98710.08
2022-08-29T09:36:57.788Z,98708.98
2022-08-29T09:38:07.130Z,98706.02
2022-08-29T09:39:10.933Z,98704.73
2022-08-29T09:40:19.093Z,98703.30
2022-08-29T09:41:28.323Z,98712.38
2022-08-29T09:42:36.787Z,98711.36
2022-08-29T09:43:38.737Z,98710.48
2022-08-29T09:44:51.125Z,98711.04
2022-08-29T09:46:17.990Z,98715.46
2022-08-29T09:47:21.651Z,98714.17
2022-08-29T09:48:24.550Z,98711.34
2022-08-29T09:49:26.284Z,98718.11
2022-08-29T09:50:28.197Z,98714.16
2022-08-29T09:51:36.005Z,98717.93
2022-08-29T09:52:51.181Z,98716.13
2022-08-29T09:54:08.674Z,98718.27
2022-08-29T09:55:20.289Z,98720.18
2022-08-29T09:56:26.440Z,98714.88
2022-08-29T09:57:29.514Z,98713.30
2022-08-29T09:58:39.932Z,98713.89
2022-08-29T10:00:15.630Z,98714.86
2022-08-29T10:01:26.199Z,98716.40
2022-08-29T10:02:48.061Z,98706.16
2022-08-29T10:03:58.352Z,98715.75
2022-08-29T10:05:12.970Z,98713.10
2022-08-29T10:06:21.302Z,98714.17
2022-08-29T10:07:32.282Z,98712.63
2022-08-29T10:08:41.330Z,98716.66
2022-08-29T10:09:54.831Z,98716.95
2022-08-29T10:11:03.463Z,98718.91
2022-08-29T10:12:17.415Z,98719.28
2022-08-29T10:13:43.521Z,98719.45
2022-08-29T10:15:02.208Z,98712.08
2022-08-29T10:16:27.435Z,98716.30
2022-08-29T10:18:09.720Z,98714.14
2022-08-29T10:19:16.282Z,98717.83
2022-08-29T10:20:18.091Z,98721.03
2022-08-29T10:22:04.857Z,98716.05
2022-08-29T10:23:17.932Z,98719.89
2022-08-29T10:24:46.390Z,98719.20
2022-08-29T10:25:53.681Z,98720.60
2022-08-29T10:27:28.348Z,98719.77
2022-08-29T10:28:43.013Z,98713.68
2022-08-29T10:29:58.072Z,98715.64
2022-08-29T10:31:02.718Z,98710.98
2022-08-29T10:32:16.033Z,98712.76
2022-08-29T10:33:25.675Z,98710.69
2022-08-29T10:34:57.926Z,98708.66
2022-08-29T10:36:14.035Z,98710.99
2022-08-29T10:37:35.263Z,98710.77
2022-08-29T10:39:01.144Z,98711.98
2022-08-29T10:40:17.603Z,98709.27
2022-08-29T10:41:40.363Z,98707.89
2022-08-29T10:42:45.635Z,98704.45
2022-08-29T10:44:11.208Z,98702.63
2022-08-29T10:45:29.005Z,98701.27
2022-08-29T10:46:54.958Z,98702.49
2022-08-29T10:48:05.604Z,98703.33
2022-08-29T10:49:22.060Z,98706.27
2022-08-29T10:50:58.601Z,98706.80
2022-08-29T10:52:14.870Z,98703.98
2022-08-29T10:53:21.462Z,98706.38
2022-08-29T10:54:52.537Z,98708.15
2022-08-29T10:56:27.785Z,98715.28
2022-08-29T10:57:45.281Z,98712.77
2022-08-29T10:59:12.467Z,98716.08
2022-08-29T11:00:18.578Z,98716.27
2022-08-29T11:01:34.188Z,98711.88
2022-08-29T11:02:47.341Z,98704.47
2022-08-29T11:04:26.802Z,98700.28
2022-08-29T11:05:38.638Z,98700.02
2022-08-29T11:06:45.211Z,98697.52
2022-08-29T11:07:56.168Z,98699.02
2022-08-29T11:09:20.914Z,98698.20
2022-08-29T11:10:29.155Z,98699.30
2022-08-29T11:11:36.464Z,98703.87
2022-08-29T11:13:01.330Z,98709.83
2022-08-29T11:14:12.968Z,98704.40
2022-08-29T11:15:18.173Z,98701.58
2022-08-29T11:16:34.223Z,98708.75
2022-08-29T11:17:41.531Z,98708.53
2022-08-29T11:19:12.514Z,98709.64
2022-08-29T11:20:24.159Z,98709.56
2022-08-29T11:21:41.205Z,98702.09
2022-08-29T11:23:20.707Z,98705.23
2022-08-29T11:24:25.471Z,98708.98
2022-08-29T11:25:29.497Z,98713.64
2022-08-29T11:26:48.573Z,98706.49
2022-08-29T11:27:57.788Z,98710.98
2022-08-29T11:29:10.934Z,98714.05
2022-08-29T11:30:22.798Z,98715.11
2022-08-29T11:31:48.927Z,98713.88
2022-08-29T11:33:14.921Z,98717.84
2022-08-29T11:34:33.098Z,98715.56
2022-08-29T11:35:50.810Z,98713.82
2022-08-29T11:37:25.685Z,98717.89
2022-08-29T11:39:01.058Z,98711.56
2022-08-29T11:42:06.268Z,98717.45
2022-08-29T11:43:15.766Z,98718.05
2022-08-29T11:44:32.257Z,98720.48
2022-08-29T11:45:40.869Z,98715.66
2022-08-29T11:46:49.424Z,98720.27
2022-08-29T11:48:02.926Z,98719.18
2022-08-29T11:49:36.125Z,98721.18
2022-08-29T11:50:39.500Z,98720.05
2022-08-29T11:51:42.521Z,98719.38
2022-08-29T11:53:07.873Z,98723.29
2022-08-29T11:54:24.989Z,98719.55
2022-08-29T11:55:31.778Z,98722.61
2022-08-29T11:56:33.606Z,98718.53
2022-08-29T11:57:35.360Z,98722.98
2022-08-29T11:58:46.129Z,98716.11
2022-08-29T11:59:51.126Z,98717.13
2022-08-29T12:00:56.233Z,98718.77
2022-08-29T12:02:01.517Z,98723.14
2022-08-29T12:03:14.951Z,98721.36
2022-08-29T12:04:52.993Z,98717.81
2022-08-29T12:05:59.485Z,98716.23
2022-08-29T12:07:04.001Z,98719.71
2022-08-29T12:08:36.119Z,98721.20
2022-08-29T12:10:00.561Z,98722.51
2022-08-29T12:11:02.572Z,98723.50
2022-08-29T12:12:04.469Z,98726.02
2022-08-29T12:13:06.959Z,98727.17
2022-08-29T12:14:08.698Z,98727.77
2022-08-29T12:15:34.996Z,98722.95
2022-08-29T12:16:50.877Z,98721.73
2022-08-29T12:18:14.083Z,98723.15
2022-08-29T12:19:47.112Z,98729.33
2022-08-29T12:20:52.388Z,98722.99
2022-08-29T12:21:54.570Z,98725.71
2022-08-29T12:23:01.674Z,98725.30
2022-08-29T12:24:29.237Z,98722.39
2022-08-29T12:25:55.174Z,98718.35
2022-08-29T12:27:03.236Z,98723.23
2022-08-29T12:28:31.136Z,98720.65
2022-08-29T12:29:44.780Z,98718.94
2022-08-29T12:31:01.145Z,98719.54
2022-08-29T12:32:22.559Z,98718.00
2022-08-29T12:33:47.208Z,98721.83
2022-08-29T12:35:11.276Z,98722.42
2022-08-29T12:36:32.607Z,98719.48
2022-08-29T12:38:00.478Z,98715.57
2022-08-29T12:39:23.792Z,98715.58
2022-08-29T12:40:34.561Z,98717.94
2022-08-29T12:41:50.938Z,98718.53
2022-08-29T12:43:09.733Z,98715.84
2022-08-29T12:44:16.593Z,98717.73
2022-08-29T12:45:24.621Z,98715.63
2022-08-29T12:46:36.119Z,98713.44
2022-08-29T12:47:52.217Z,98717.02
2022-08-29T12:49:19.901Z,98715.98
2022-08-29T12:50:26.697Z,98715.60
2022-08-29T12:51:53.937Z,98716.63
2022-08-29T12:53:26.966Z,98715.88
2022-08-29T12:54:32.335Z,98715.19
2022-08-29T12:55:43.364Z,98717.16
2022-08-29T12:56:52.176Z,98711.90
2022-08-29T12:57:53.986Z,98713.25
2022-08-29T12:59:02.366Z,98711.23
2022-08-29T13:00:15.765Z,98713.27
2022-08-29T13:01:26.358Z,98713.09
2022-08-29T13:02:35.228Z,98712.80
2022-08-29T13:03:37.012Z,98715.43
2022-08-29T13:04:43.811Z,98711.83
2022-08-29T13:05:45.761Z,98709.52
2022-08-29T13:07:04.882Z,98712.16
2022-08-29T13:08:11.119Z,98712.79
2022-08-29T13:09:31.678Z,98715.17
2022-08-29T13:10:36.744Z,98710.02